createdAt,value
2019-02-28T00:02:29.666Z,4.50
2019-02-28T00:05:05.821Z,4.40
2019-02-28T00:07:32.322Z,4.40
2019-02-28T00:10:05.279Z,4.30
2019-02-28T00:12:39.050Z,4.40
2019-02-28T00:15:09.708Z,4.30
2019-02-28T00:17:43.536Z,4.30
2019-02-28T00:20:16.295Z,4.30
2019-02-28T00:22:49.285Z,4.30
2019-02-28T00:25:20.267Z,4.30
2019-02-28T00:27:52.647Z,4.50
2019-02-28T00:30:23.939Z,4.50
2019-02-28T00:32:59.375Z,4.60
2019-02-28T00:35:31.544Z,4.60
2019-02-28T00:38:02.084Z,4.50
2019-02-28T00:40:34.448Z,4.50
2019-02-28T00:43:08.155Z,4.40
2019-02-28T00:45:39.001Z,4.60
2019-02-28T00:48:09.523Z,4.60
2019-02-28T00:50:40.150Z,4.50
2019-02-28T00:53:12.404Z,4.50
2019-02-28T00:55:45.981Z,4.40
2019-02-28T00:58:28.642Z,4.40
2019-02-28T01:00:56.225Z,4.50
2019-02-28T01:03:27.562Z,4.50
2019-02-28T01:05:58.123Z,4.50
2019-02-28T01:08:30.306Z,4.50
2019-02-28T01:11:04.169Z,4.60
2019-02-28T01:13:35.846Z,4.60
2019-02-28T01:16:08.256Z,4.60
2019-02-28T01:18:40.011Z,4.80
2019-02-28T01:21:11.974Z,4.80
2019-02-28T01:23:42.512Z,4.90
2019-02-28T01:26:13.187Z,5.20
2019-02-28T01:28:46.113Z,5.40
2019-02-28T01:31:16.613Z,5.70
2019-02-28T01:33:47.024Z,5.90
2019-02-28T01:36:17.520Z,6.10
2019-02-28T01:38:47.967Z,6.20
2019-02-28T01:41:20.802Z,6.30
2019-02-28T01:43:53.445Z,6.30
2019-02-28T01:46:28.517Z,6.40
2019-02-28T01:49:03.773Z,6.40
2019-02-28T01:51:36.601Z,6.60
2019-02-28T01:54:11.906Z,6.70
2019-02-28T01:56:42.542Z,6.70
2019-02-28T01:59:21.581Z,6.70
2019-02-28T02:01:52.805Z,6.80
2019-02-28T02:04:23.302Z,6.80
2019-02-28T02:06:53.927Z,6.70
2019-02-28T02:09:27.224Z,6.70
2019-02-28T02:11:58.907Z,6.80
2019-02-28T02:14:31.664Z,6.70
2019-02-28T02:17:02.152Z,6.80
2019-02-28T02:19:33.028Z,6.80
2019-02-28T02:22:09.127Z,6.80
2019-02-28T02:24:36.008Z,6.60
2019-02-28T02:27:06.611Z,6.60
2019-02-28T02:29:37.700Z,6.60
2019-02-28T02:32:08.230Z,6.60
2019-02-28T02:34:38.752Z,6.50
2019-02-28T02:37:09.564Z,6.40
2019-02-28T02:39:40.115Z,6.40
2019-02-28T02:42:11.681Z,6.40
2019-02-28T02:44:42.732Z,6.40
2019-02-28T02:47:13.415Z,6.30
2019-02-28T02:49:55.968Z,6.20
2019-02-28T02:52:29.961Z,6.20
2019-02-28T02:54:58.827Z,6.20
2019-02-28T02:57:29.265Z,6.20
2019-02-28T02:59:59.740Z,6.20
2019-02-28T03:02:34.321Z,6.10
2019-02-28T03:05:08.400Z,6.00
2019-02-28T03:07:40.151Z,6.00
2019-02-28T03:10:12.137Z,6.00
2019-02-28T03:12:43.901Z,6.00
2019-02-28T03:15:16.678Z,6.00
2019-02-28T03:17:49.900Z,5.90
2019-02-28T03:20:20.887Z,5.90
2019-02-28T03:22:51.362Z,5.90
2019-02-28T03:25:28.288Z,5.90
2019-02-28T03:27:58.758Z,5.80
2019-02-28T03:30:32.889Z,5.80
2019-02-28T03:33:01.399Z,5.80
2019-02-28T03:35:40.295Z,5.70
2019-02-28T03:38:10.630Z,5.70
2019-02-28T03:40:40.170Z,5.70
2019-02-28T03:43:17.006Z,5.80
2019-02-28T03:45:47.509Z,5.70
2019-02-28T03:48:23.043Z,5.70
2019-02-28T03:50:59.982Z,5.60
2019-02-28T03:53:32.416Z,5.50
2019-02-28T03:56:03.205Z,5.50
2019-02-28T03:58:41.608Z,5.50
2019-02-28T04:01:10.200Z,5.50
2019-02-28T04:03:41.159Z,5.50
2019-02-28T04:06:17.488Z,5.40
2019-02-28T04:08:48.215Z,5.30
2019-02-28T04:11:18.729Z,5.20
2019-02-28T04:13:52.501Z,5.30
2019-02-28T04:16:22.415Z,5.30
2019-02-28T04:18:55.811Z,5.40
2019-02-28T04:21:28.279Z,5.40
2019-02-28T04:24:00.516Z,5.40
2019-02-28T04:26:34.028Z,5.40
2019-02-28T04:29:04.505Z,5.40
2019-02-28T04:31:36.980Z,5.30
2019-02-28T04:34:12.990Z,5.40
2019-02-28T04:36:39.535Z,5.40
2019-02-28T04:39:11.595Z,5.40
2019-02-28T04:41:43.748Z,5.30
2019-02-28T04:44:18.257Z,5.20
2019-02-28T04:46:52.576Z,5.20
2019-02-28T04:49:24.939Z,5.30
2019-02-28T04:51:57.307Z,5.40
2019-02-28T04:54:28.726Z,5.50
2019-02-28T04:56:59.267Z,5.30
2019-02-28T04:59:31.550Z,5.30
2019-02-28T05:02:03.296Z,5.20
2019-02-28T05:04:36.105Z,5.10
2019-02-28T05:07:12.001Z,5.10
2019-02-28T05:09:45.184Z,5.10
2019-02-28T05:12:19.377Z,5.10
2019-02-28T05:14:49.948Z,4.80
2019-02-28T05:17:22.290Z,4.90
2019-02-28T05:19:52.620Z,5.00
2019-02-28T05:22:27.576Z,5.10
2019-02-28T05:25:00.091Z,5.10
2019-02-28T05:27:35.426Z,5.00
2019-02-28T05:30:09.431Z,5.10
2019-02-28T05:32:39.874Z,5.10
2019-02-28T05:35:10.464Z,5.00
2019-02-28T05:37:46.894Z,5.10
2019-02-28T05:40:13.734Z,5.00
2019-02-28T05:42:44.244Z,5.10
2019-02-28T05:45:19.098Z,5.10
2019-02-28T05:47:49.564Z,5.20
2019-02-28T05:50:23.456Z,5.20
2019-02-28T05:52:56.922Z,5.20
2019-02-28T05:55:30.353Z,5.20
2019-02-28T05:58:00.863Z,5.20
2019-02-28T06:00:33.373Z,5.30
2019-02-28T06:03:03.516Z,5.30
2019-02-28T06:05:34.317Z,5.30
2019-02-28T06:08:07.247Z,5.40
2019-02-28T06:10:37.961Z,5.50
2019-02-28T06:13:11.510Z,5.50
2019-02-28T06:15:46.127Z,5.50
2019-02-28T06:18:22.969Z,5.50
2019-02-28T06:21:00.736Z,5.50
2019-02-28T06:23:31.666Z,5.60
2019-02-28T06:26:05.158Z,5.60
2019-02-28T06:28:35.999Z,5.60
2019-02-28T06:31:07.294Z,5.60
2019-02-28T06:33:39.451Z,5.60
2019-02-28T06:36:10.753Z,5.60
2019-02-28T06:38:43.995Z,5.70
2019-02-28T06:41:20.057Z,5.70
2019-02-28T06:43:53.898Z,5.70
2019-02-28T06:46:26.343Z,5.70
2019-02-28T06:49:01.635Z,5.80
2019-02-28T06:51:29.706Z,5.80
2019-02-28T06:54:26.867Z,6.00
2019-02-28T06:56:57.615Z,5.90
2019-02-28T06:59:28.390Z,6.00
2019-02-28T07:01:59.050Z,6.00
2019-02-28T07:04:30.140Z,6.10
2019-02-28T07:07:07.362Z,6.20
2019-02-28T07:09:39.605Z,6.30
2019-02-28T07:12:10.363Z,6.30
2019-02-28T07:14:44.490Z,6.30
2019-02-28T07:17:13.787Z,6.50
2019-02-28T07:19:44.526Z,6.60
2019-02-28T07:22:19.628Z,6.70
2019-02-28T07:24:50.307Z,6.70
2019-02-28T07:27:23.342Z,6.70
2019-02-28T07:29:53.453Z,6.80
2019-02-28T07:32:26.094Z,6.90
2019-02-28T07:34:59.723Z,7.10
2019-02-28T07:37:31.389Z,7.50
2019-02-28T07:40:05.114Z,7.90
2019-02-28T07:42:37.571Z,8.00
2019-02-28T07:45:12.357Z,7.80
2019-02-28T07:47:45.502Z,7.80
2019-02-28T07:50:20.474Z,8.30
2019-02-28T07:52:53.240Z,8.80
2019-02-28T07:55:27.199Z,8.90
2019-02-28T07:57:58.131Z,8.90
2019-02-28T08:00:28.885Z,8.90
2019-02-28T08:03:00.882Z,8.80
2019-02-28T08:05:31.810Z,9.10
2019-02-28T08:08:10.422Z,9.30
2019-02-28T08:10:47.940Z,9.90
2019-02-28T08:13:20.327Z,10.30
2019-02-28T08:15:53.304Z,10.50
2019-02-28T08:18:28.877Z,10.50
2019-02-28T08:21:05.348Z,10.60
2019-02-28T08:23:37.618Z,10.20
2019-02-28T08:26:09.232Z,9.80
2019-02-28T08:28:43.796Z,10.10
2019-02-28T08:31:15.564Z,10.60
2019-02-28T08:33:48.055Z,11.40
2019-02-28T08:36:22.161Z,11.30
2019-02-28T08:38:53.380Z,11.20
2019-02-28T08:41:25.704Z,11.90
2019-02-28T08:43:59.612Z,11.60
2019-02-28T08:46:33.085Z,11.30
2019-02-28T08:49:07.211Z,11.40
2019-02-28T08:51:38.810Z,11.50
2019-02-28T08:54:09.659Z,10.70
2019-02-28T08:56:46.078Z,11.00
2019-02-28T08:59:18.170Z,11.30
2019-02-28T09:01:47.960Z,11.40
2019-02-28T09:04:23.679Z,11.70
2019-02-28T09:06:58.721Z,11.20
2019-02-28T09:09:34.489Z,11.90
2019-02-28T09:12:10.898Z,13.00
2019-02-28T09:14:43.716Z,13.30
2019-02-28T09:17:18.583Z,13.30
2019-02-28T09:19:49.804Z,13.40
2019-02-28T09:22:26.994Z,13.30
2019-02-28T09:24:56.568Z,13.70
2019-02-28T09:27:27.309Z,14.30
2019-02-28T09:30:00.339Z,14.50
2019-02-28T09:32:31.216Z,14.10
2019-02-28T09:35:12.246Z,14.00
2019-02-28T09:37:38.979Z,14.30
2019-02-28T09:40:13.901Z,14.10
2019-02-28T09:42:47.992Z,14.50
2019-02-28T09:45:39.861Z,13.90
2019-02-28T09:48:12.054Z,13.90
2019-02-28T09:50:48.511Z,14.10
2019-02-28T09:53:19.343Z,14.70
2019-02-28T09:55:50.639Z,14.80
2019-02-28T09:58:21.382Z,14.50
2019-02-28T10:00:52.196Z,14.10
2019-02-28T10:03:22.972Z,13.80
2019-02-28T10:05:54.197Z,14.30
2019-02-28T10:08:24.841Z,15.00
2019-02-28T10:10:56.106Z,14.70
2019-02-28T10:13:28.643Z,14.70
2019-02-28T10:15:59.573Z,14.70
2019-02-28T10:18:35.540Z,15.20
2019-02-28T10:21:09.784Z,15.20
2019-02-28T10:23:42.986Z,15.70
2019-02-28T10:26:14.375Z,16.60
2019-02-28T10:28:46.541Z,15.80
2019-02-28T10:31:17.303Z,16.60
2019-02-28T10:33:49.501Z,17.20
2019-02-28T10:36:22.918Z,17.70
2019-02-28T10:38:53.544Z,17.40
2019-02-28T10:41:31.488Z,17.20
2019-02-28T10:44:03.966Z,17.00
2019-02-28T10:46:38.091Z,17.90
2019-02-28T10:49:08.907Z,17.60
2019-02-28T10:51:44.670Z,17.20
2019-02-28T10:54:15.420Z,16.90
2019-02-28T10:56:52.711Z,17.20
2019-02-28T10:59:26.661Z,17.40
2019-02-28T11:01:59.233Z,17.50
2019-02-28T11:04:30.244Z,17.60
2019-02-28T11:07:03.003Z,17.10
2019-02-28T11:09:35.923Z,17.30
2019-02-28T11:12:11.757Z,18.70
2019-02-28T11:14:43.912Z,18.60
2019-02-28T11:17:21.772Z,17.40
2019-02-28T11:19:55.304Z,19.20
2019-02-28T11:22:26.240Z,20.00
2019-02-28T11:25:03.528Z,20.30
2019-02-28T11:27:38.329Z,20.20
2019-02-28T11:30:13.898Z,19.30
2019-02-28T11:32:46.758Z,19.00
2019-02-28T11:35:23.165Z,20.40
2019-02-28T11:37:53.047Z,20.80
2019-02-28T11:40:28.630Z,22.30
2019-02-28T11:43:05.755Z,22.90
2019-02-28T11:45:36.969Z,20.90
2019-02-28T11:48:12.798Z,19.50
2019-02-28T11:50:47.500Z,20.00
2019-02-28T11:53:26.620Z,20.10
2019-02-28T11:55:57.554Z,19.80
2019-02-28T11:58:30.382Z,19.70
2019-02-28T12:01:02.293Z,20.00
2019-02-28T12:03:35.662Z,20.00
2019-02-28T12:06:08.044Z,20.00
2019-02-28T12:08:45.000Z,20.20
2019-02-28T12:11:18.209Z,19.30
2019-02-28T12:13:51.698Z,18.80
2019-02-28T12:16:24.447Z,18.40
2019-02-28T12:18:58.365Z,19.10
2019-02-28T12:21:31.541Z,18.10
2019-02-28T12:24:06.623Z,18.80
2019-02-28T12:26:37.481Z,19.20
2019-02-28T12:29:14.445Z,18.00
2019-02-28T12:31:46.316Z,16.90
2019-02-28T12:34:18.334Z,17.50
2019-02-28T12:36:55.158Z,17.40
2019-02-28T12:39:26.029Z,16.70
2019-02-28T12:41:59.533Z,16.50
2019-02-28T12:44:33.836Z,16.60
2019-02-28T12:47:09.365Z,15.70
2019-02-28T12:49:40.384Z,16.10
2019-02-28T12:52:14.562Z,15.70
2019-02-28T12:54:46.319Z,15.90
2019-02-28T12:57:19.308Z,15.60
2019-02-28T12:59:54.058Z,15.90
2019-02-28T13:02:24.952Z,15.70
2019-02-28T13:04:55.909Z,16.20
2019-02-28T13:07:26.617Z,16.10
2019-02-28T13:09:57.511Z,15.90
2019-02-28T13:12:37.474Z,15.80
2019-02-28T13:15:13.250Z,15.60
2019-02-28T13:17:51.605Z,15.30
2019-02-28T13:20:32.402Z,14.60
2019-02-28T13:23:01.921Z,14.40
2019-02-28T13:25:33.430Z,14.90
2019-02-28T13:28:04.816Z,15.20
2019-02-28T13:30:35.675Z,15.40
2019-02-28T13:33:11.030Z,15.30
2019-02-28T13:35:45.326Z,14.70
2019-02-28T13:38:19.238Z,14.70
2019-02-28T13:40:46.725Z,14.60
2019-02-28T13:43:24.179Z,14.70
2019-02-28T13:45:57.923Z,14.30
2019-02-28T13:48:44.749Z,14.00
2019-02-28T13:51:16.368Z,13.50
2019-02-28T13:53:47.272Z,13.60
2019-02-28T13:56:18.136Z,13.40
2019-02-28T13:58:53.624Z,13.20
2019-02-28T14:01:23.502Z,13.00
2019-02-28T14:03:55.882Z,12.90
2019-02-28T14:06:26.780Z,12.80
2019-02-28T14:08:57.650Z,12.90
2019-02-28T14:11:32.056Z,12.80
2019-02-28T14:14:06.304Z,12.50
2019-02-28T14:16:35.470Z,12.40
2019-02-28T14:19:06.456Z,12.50
2019-02-28T14:21:40.267Z,12.30
2019-02-28T14:24:13.965Z,12.30
2019-02-28T14:26:46.548Z,12.30
2019-02-28T14:29:17.813Z,12.20
2019-02-28T14:31:49.012Z,12.30
2019-02-28T14:34:26.221Z,12.20
2019-02-28T14:36:55.608Z,12.10
2019-02-28T14:39:26.866Z,11.90
2019-02-28T14:42:03.166Z,11.80
2019-02-28T14:44:34.111Z,11.70
2019-02-28T14:47:08.307Z,11.70
2019-02-28T14:49:44.547Z,11.70
2019-02-28T14:52:20.806Z,11.60
2019-02-28T14:54:57.159Z,11.80
2019-02-28T14:57:29.866Z,11.60
2019-02-28T15:00:06.415Z,11.60
2019-02-28T15:02:39.566Z,11.50
2019-02-28T15:05:16.717Z,11.30
2019-02-28T15:07:47.507Z,11.30
2019-02-28T15:10:20.222Z,11.30
2019-02-28T15:12:51.213Z,11.00
2019-02-28T15:15:22.575Z,10.90
2019-02-28T15:17:53.418Z,10.80
2019-02-28T15:20:38.665Z,10.70
2019-02-28T15:23:11.332Z,10.60
2019-02-28T15:25:55.750Z,10.50
2019-02-28T15:28:29.706Z,10.40
2019-02-28T15:31:08.631Z,10.30
2019-02-28T15:33:39.525Z,10.30
2019-02-28T15:36:10.585Z,10.10
2019-02-28T15:38:44.478Z,10.10
2019-02-28T15:41:16.387Z,10.00
2019-02-28T15:43:53.520Z,10.00
2019-02-28T15:46:27.569Z,9.90
2019-02-28T15:49:00.649Z,9.70
2019-02-28T15:51:33.444Z,9.70
2019-02-28T15:54:05.090Z,9.40
2019-02-28T15:56:39.053Z,9.40
2019-02-28T15:59:14.777Z,9.30
2019-02-28T16:01:48.164Z,9.20
2019-02-28T16:04:19.605Z,9.10
2019-02-28T16:06:56.612Z,9.00
2019-02-28T16:09:23.293Z,9.00
2019-02-28T16:11:54.233Z,8.90
2019-02-28T16:14:25.618Z,8.90
2019-02-28T16:16:56.842Z,8.80
2019-02-28T16:19:32.606Z,8.70
2019-02-28T16:22:05.590Z,8.60
2019-02-28T16:24:39.857Z,8.50
2019-02-28T16:27:15.119Z,8.40
2019-02-28T16:29:46.064Z,8.30
2019-02-28T16:32:19.408Z,8.20
2019-02-28T16:34:51.256Z,8.20
2019-02-28T16:37:24.892Z,8.10
2019-02-28T16:39:56.162Z,8.10
2019-02-28T16:42:32.158Z,8.00
2019-02-28T16:45:06.079Z,7.90
2019-02-28T16:47:38.228Z,7.90
2019-02-28T16:50:09.978Z,7.70
2019-02-28T16:52:41.435Z,7.50
2019-02-28T16:55:12.671Z,7.30
2019-02-28T16:57:47.103Z,7.00
2019-02-28T17:00:20.619Z,6.90
2019-02-28T17:02:53.733Z,6.70
2019-02-28T17:05:28.384Z,6.50
2019-02-28T17:08:00.518Z,6.50
2019-02-28T17:10:36.604Z,6.50
2019-02-28T17:13:26.860Z,6.40
2019-02-28T17:16:24.872Z,6.30
2019-02-28T17:19:00.027Z,6.20
2019-02-28T17:21:31.097Z,6.10
2019-02-28T17:24:08.559Z,6.00
2019-02-28T17:26:58.008Z,5.90
2019-02-28T17:29:37.745Z,6.00
2019-02-28T17:32:08.904Z,5.90
2019-02-28T17:34:43.925Z,5.80
2019-02-28T17:37:15.585Z,5.70
2019-02-28T17:39:51.177Z,5.70
2019-02-28T17:42:22.040Z,5.60
2019-02-28T17:45:16.452Z,5.60
2019-02-28T17:48:33.699Z,5.60
2019-02-28T17:51:14.945Z,5.60
2019-02-28T17:54:04.438Z,5.50
2019-02-28T17:57:06.352Z,5.50
2019-02-28T17:59:45.342Z,5.50
2019-02-28T18:02:47.713Z,5.60
2019-02-28T18:06:02.261Z,5.50
2019-02-28T18:09:09.555Z,5.60
2019-02-28T18:11:56.691Z,5.50
2019-02-28T18:15:00.273Z,5.30
2019-02-28T18:17:57.403Z,5.40
2019-02-28T18:21:00.798Z,5.50
2019-02-28T18:24:00.238Z,5.40
2019-02-28T18:27:03.742Z,5.50
2019-02-28T18:29:59.617Z,5.30
2019-02-28T18:32:33.312Z,5.30
2019-02-28T18:35:02.350Z,5.30
2019-02-28T18:37:34.516Z,5.20
2019-02-28T18:40:05.548Z,5.20
2019-02-28T18:42:36.508Z,5.20
2019-02-28T18:45:11.352Z,5.10
2019-02-28T18:47:47.602Z,5.00
2019-02-28T18:50:21.407Z,5.00
2019-02-28T18:52:51.863Z,5.00
2019-02-28T18:55:22.303Z,5.00
2019-02-28T18:57:54.583Z,5.00
2019-02-28T19:00:28.835Z,5.00
2019-02-28T19:03:03.429Z,4.80
2019-02-28T19:05:33.891Z,4.70
2019-02-28T19:08:10.283Z,4.60
2019-02-28T19:10:45.435Z,4.50
2019-02-28T19:13:18.555Z,4.50
2019-02-28T19:15:54.883Z,4.50
2019-02-28T19:18:26.452Z,4.50
2019-02-28T19:20:59.736Z,4.50
2019-02-28T19:23:31.624Z,4.50
2019-02-28T19:26:02.225Z,4.40
2019-02-28T19:28:35.880Z,4.40
2019-02-28T19:31:08.040Z,4.50
2019-02-28T19:33:40.932Z,4.70
2019-02-28T19:36:18.180Z,4.70
2019-02-28T19:38:50.212Z,4.70
2019-02-28T19:41:24.196Z,4.80
2019-02-28T19:43:58.829Z,4.90
2019-02-28T19:46:34.924Z,5.00
2019-02-28T19:49:05.530Z,5.00
2019-02-28T19:51:43.111Z,5.00
2019-02-28T19:54:15.845Z,5.00
2019-02-28T19:56:46.308Z,5.00
2019-02-28T19:59:21.880Z,5.10
2019-02-28T20:01:56.711Z,5.10
2019-02-28T20:04:27.265Z,5.00
2019-02-28T20:06:59.039Z,5.00
2019-02-28T20:09:36.275Z,5.00
2019-02-28T20:12:12.930Z,5.10
2019-02-28T20:14:44.768Z,5.00
2019-02-28T20:17:15.557Z,5.00
2019-02-28T20:19:52.381Z,5.10
2019-02-28T20:22:23.149Z,5.10
2019-02-28T20:24:57.379Z,5.00
2019-02-28T20:27:27.989Z,5.10
2019-02-28T20:29:58.532Z,5.20
2019-02-28T20:32:32.163Z,5.20
2019-02-28T20:35:02.939Z,5.20
2019-02-28T20:37:34.203Z,5.20
2019-02-28T20:40:06.841Z,5.30
2019-02-28T20:42:37.343Z,5.40
2019-02-28T20:45:11.054Z,5.40
2019-02-28T20:47:41.763Z,5.40
2019-02-28T20:50:15.812Z,5.40
2019-02-28T20:52:46.625Z,5.30
2019-02-28T20:55:17.169Z,5.40
2019-02-28T20:57:47.770Z,5.50
2019-02-28T21:00:20.873Z,5.50
2019-02-28T21:02:51.648Z,5.50
2019-02-28T21:05:22.157Z,5.50
2019-02-28T21:07:52.839Z,5.50
2019-02-28T21:10:23.591Z,5.50
2019-02-28T21:12:56.748Z,5.50
2019-02-28T21:15:27.415Z,5.50
2019-02-28T21:17:58.312Z,5.50
2019-02-28T21:20:28.953Z,5.50
2019-02-28T21:23:01.180Z,5.50
2019-02-28T21:25:34.936Z,5.50
2019-02-28T21:28:05.522Z,5.50
2019-02-28T21:30:36.090Z,5.50
2019-02-28T21:33:12.195Z,5.40
2019-02-28T21:35:42.995Z,5.40
2019-02-28T21:38:16.407Z,5.40
2019-02-28T21:40:54.120Z,5.40
2019-02-28T21:43:26.818Z,5.50
2019-02-28T21:45:57.401Z,5.50
2019-02-28T21:48:30.160Z,5.50
2019-02-28T21:51:02.702Z,5.50
2019-02-28T21:53:35.941Z,5.50
2019-02-28T21:56:06.933Z,5.50
2019-02-28T21:58:37.586Z,5.50
2019-02-28T22:01:08.071Z,5.50
2019-02-28T22:03:40.877Z,5.50
2019-02-28T22:06:14.998Z,5.50
2019-02-28T22:08:50.406Z,5.40
2019-02-28T22:11:20.946Z,5.40
2019-02-28T22:13:51.653Z,5.40
2019-02-28T22:16:22.188Z,5.40
2019-02-28T22:18:52.688Z,5.40
2019-02-28T22:21:24.239Z,5.40
2019-02-28T22:23:57.572Z,5.30
2019-02-28T22:26:28.332Z,5.40
2019-02-28T22:29:01.848Z,5.30
2019-02-28T22:32:08.168Z,5.30
2019-02-28T22:34:44.551Z,5.40
2019-02-28T22:37:19.656Z,5.40
2019-02-28T22:39:54.864Z,5.40
2019-02-28T22:42:27.049Z,5.40
2019-02-28T22:44:59.415Z,5.40
2019-02-28T22:47:30.033Z,5.50
2019-02-28T22:50:01.164Z,5.50
2019-02-28T22:52:32.347Z,5.50
2019-02-28T22:55:06.381Z,5.50
2019-02-28T22:57:37.096Z,5.50
2019-02-28T23:00:19.784Z,5.40
2019-02-28T23:02:54.441Z,5.40
2019-02-28T23:05:28.943Z,5.40
2019-02-28T23:07:59.403Z,5.50
2019-02-28T23:10:29.941Z,5.50
2019-02-28T23:13:00.549Z,5.40
2019-02-28T23:15:36.730Z,5.40
2019-02-28T23:18:08.741Z,5.40
2019-02-28T23:20:39.392Z,5.40
2019-02-28T23:23:12.644Z,5.40
2019-02-28T23:25:46.136Z,5.40
2019-02-28T23:28:31.597Z,5.40
2019-02-28T23:31:37.785Z,5.40
2019-02-28T23:34:16.456Z,5.40
2019-02-28T23:36:48.691Z,5.40
2019-02-28T23:39:24.625Z,5.40
2019-02-28T23:41:55.407Z,5.30
2019-02-28T23:44:25.856Z,5.30
2019-02-28T23:46:56.389Z,5.30
2019-02-28T23:49:28.480Z,5.30
2019-02-28T23:51:59.112Z,5.20
2019-02-28T23:54:29.914Z,5.20
2019-02-28T23:57:00.525Z,5.10
2019-02-28T23:59:31.088Z,5.00
